createdAt,value
2022-08-17T00:02:26.412Z,7.93
2022-08-17T00:04:54.705Z,7.72
2022-08-17T00:07:21.758Z,8.48
2022-08-17T00:09:48.305Z,6.88
2022-08-17T00:12:40.696Z,6.25
2022-08-17T00:15:01.899Z,7.00
2022-08-17T00:17:28.431Z,6.78
2022-08-17T00:19:54.910Z,6.63
2022-08-17T00:22:35.052Z,7.30
2022-08-17T00:25:09.141Z,7.13
2022-08-17T00:27:36.829Z,8.93
2022-08-17T00:30:06.072Z,6.55
2022-08-17T00:33:16.081Z,6.53
2022-08-17T00:35:32.190Z,8.90
2022-08-17T00:37:58.630Z,7.85
2022-08-17T00:40:25.169Z,7.13
2022-08-17T00:42:53.246Z,7.80
2022-08-17T00:45:20.785Z,6.93
2022-08-17T00:47:47.971Z,6.97
2022-08-17T00:50:18.583Z,6.10
2022-08-17T00:52:54.064Z,7.30
2022-08-17T00:55:21.232Z,8.43
2022-08-17T00:57:55.237Z,7.65
2022-08-17T01:00:26.692Z,10.25
2022-08-17T01:03:02.005Z,6.97
2022-08-17T01:05:32.792Z,8.23
2022-08-17T01:08:02.406Z,8.25
2022-08-17T01:11:00.628Z,7.18
2022-08-17T01:13:24.497Z,8.13
2022-08-17T01:15:57.277Z,7.70
2022-08-17T01:18:25.421Z,6.15
2022-08-17T01:20:54.080Z,7.15
2022-08-17T01:23:23.412Z,6.30
2022-08-17T01:25:52.249Z,8.98
2022-08-17T01:28:53.030Z,7.18
2022-08-17T01:31:08.327Z,9.38
2022-08-17T01:33:34.920Z,7.68
2022-08-17T01:36:01.736Z,7.75
2022-08-17T01:38:31.683Z,8.05
2022-08-17T01:41:06.371Z,6.95
2022-08-17T01:43:39.873Z,9.00
2022-08-17T01:46:06.429Z,8.93
2022-08-17T01:48:34.781Z,8.65
2022-08-17T01:51:01.316Z,8.00
2022-08-17T01:53:33.524Z,8.35
2022-08-17T01:56:06.678Z,6.45
2022-08-17T01:58:34.752Z,7.20
2022-08-17T02:01:03.725Z,6.93
2022-08-17T02:03:30.428Z,9.02
2022-08-17T02:05:57.475Z,7.03
2022-08-17T02:08:38.749Z,8.10
2022-08-17T02:11:11.711Z,8.52
2022-08-17T02:13:38.985Z,6.30
2022-08-17T02:16:05.488Z,7.03
2022-08-17T02:18:31.946Z,9.52
2022-08-17T02:20:59.180Z,7.63
2022-08-17T02:23:30.137Z,9.77
2022-08-17T02:25:58.924Z,9.50
2022-08-17T02:28:28.348Z,8.82
2022-08-17T02:31:01.518Z,7.47
2022-08-17T02:33:41.803Z,8.77
2022-08-17T02:36:11.512Z,7.57
2022-08-17T02:38:39.690Z,7.93
2022-08-17T02:41:06.782Z,7.75
2022-08-17T02:43:33.242Z,10.73
2022-08-17T02:45:59.859Z,8.38
2022-08-17T02:48:30.391Z,8.95
2022-08-17T02:50:59.449Z,7.78
2022-08-17T02:53:26.244Z,7.82
2022-08-17T02:55:53.090Z,10.77
2022-08-17T02:58:34.532Z,8.57
2022-08-17T03:01:06.873Z,7.80
2022-08-17T03:03:34.692Z,9.93
2022-08-17T03:06:01.513Z,7.60
2022-08-17T03:08:28.227Z,10.10
2022-08-17T03:10:55.027Z,8.15
2022-08-17T03:13:22.149Z,7.45
2022-08-17T03:15:49.258Z,7.15
2022-08-17T03:18:24.308Z,9.52
2022-08-17T03:20:59.313Z,10.00
2022-08-17T03:23:27.435Z,8.15
2022-08-17T03:25:55.566Z,7.60
2022-08-17T03:28:23.361Z,8.35
2022-08-17T03:30:51.091Z,8.45
2022-08-17T03:33:18.060Z,12.05
2022-08-17T03:35:44.652Z,9.45
2022-08-17T03:38:12.717Z,10.98
2022-08-17T03:40:57.101Z,9.70
2022-08-17T03:43:28.374Z,10.43
2022-08-17T03:46:27.363Z,11.25
2022-08-17T03:49:17.720Z,8.65
2022-08-17T03:52:02.472Z,9.32
2022-08-17T03:54:47.268Z,11.57
2022-08-17T03:57:13.847Z,7.25
2022-08-17T03:59:41.551Z,9.43
2022-08-17T04:02:11.428Z,7.40
2022-08-17T04:04:38.871Z,10.18
2022-08-17T04:07:06.171Z,10.70
2022-08-17T04:09:32.985Z,11.10
2022-08-17T04:12:02.339Z,9.90
2022-08-17T04:14:36.062Z,9.13
2022-08-17T04:17:12.472Z,11.20
2022-08-17T04:19:38.903Z,8.85
2022-08-17T04:22:05.666Z,11.00
2022-08-17T04:24:33.492Z,10.05
2022-08-17T04:27:01.568Z,25.15
2022-08-17T04:29:28.021Z,12.27
2022-08-17T04:32:14.619Z,12.13
2022-08-17T04:34:41.091Z,10.27
2022-08-17T04:37:08.609Z,14.90
2022-08-17T04:39:35.102Z,15.73
2022-08-17T04:42:07.381Z,14.32
2022-08-17T04:44:37.795Z,14.32
2022-08-17T04:47:05.012Z,12.98
2022-08-17T04:49:32.486Z,12.35
2022-08-17T04:52:04.124Z,13.35
2022-08-17T04:54:31.457Z,13.05
2022-08-17T04:56:57.896Z,12.65
2022-08-17T05:01:52.120Z,18.40
2022-08-17T05:04:34.105Z,13.77
2022-08-17T05:07:02.106Z,13.73
2022-08-17T05:09:28.968Z,16.48
2022-08-17T05:11:55.449Z,18.42
2022-08-17T05:14:33.018Z,20.10
2022-08-17T05:17:00.485Z,19.83
2022-08-17T05:19:27.691Z,16.50
2022-08-17T05:24:42.777Z,15.85
2022-08-17T05:27:07.404Z,13.53
2022-08-17T05:29:35.479Z,15.02
2022-08-17T05:32:39.220Z,16.00
2022-08-17T05:35:00.367Z,13.50
2022-08-17T05:37:27.136Z,17.80
2022-08-17T05:39:53.915Z,12.40
2022-08-17T05:42:21.015Z,12.88
2022-08-17T05:44:47.506Z,11.90
2022-08-17T05:49:40.429Z,14.45
2022-08-17T05:52:33.313Z,12.68
2022-08-17T05:55:33.156Z,14.40
2022-08-17T05:58:14.900Z,11.90
2022-08-17T06:01:17.806Z,9.60
2022-08-17T06:04:28.619Z,14.45
2022-08-17T06:07:00.956Z,15.07
2022-08-17T06:09:38.269Z,14.75
2022-08-17T06:12:32.110Z,13.95
2022-08-17T06:15:26.175Z,12.73
2022-08-17T06:17:57.440Z,14.18
2022-08-17T06:20:27.693Z,13.02
2022-08-17T06:23:02.580Z,12.48
2022-08-17T06:25:34.771Z,12.90
2022-08-17T06:28:14.581Z,12.95
2022-08-17T06:31:00.862Z,10.82
2022-08-17T06:33:35.564Z,10.77
2022-08-17T06:36:36.828Z,10.65
2022-08-17T06:39:19.850Z,10.07
2022-08-17T06:41:58.376Z,10.32
2022-08-17T06:44:47.609Z,10.40
2022-08-17T06:47:28.949Z,10.48
2022-08-17T06:50:24.660Z,9.73
2022-08-17T06:53:02.780Z,10.52
2022-08-17T06:55:44.027Z,10.35
2022-08-17T06:58:16.200Z,9.77
2022-08-17T07:00:45.995Z,10.48
2022-08-17T07:03:23.832Z,8.63
2022-08-17T07:06:32.667Z,10.82
2022-08-17T07:09:14.613Z,9.60
2022-08-17T07:11:49.197Z,12.43
2022-08-17T07:14:27.715Z,8.93
2022-08-17T07:16:56.523Z,8.50
2022-08-17T07:19:26.886Z,8.60
2022-08-17T07:22:07.717Z,10.65
2022-08-17T07:24:47.299Z,9.48
2022-08-17T07:27:37.219Z,9.32
2022-08-17T07:30:16.336Z,11.35
2022-08-17T07:32:47.619Z,10.38
2022-08-17T07:35:31.116Z,9.00
2022-08-17T07:38:25.967Z,9.85
2022-08-17T07:41:05.852Z,10.80
2022-08-17T07:43:39.355Z,10.95
2022-08-17T07:46:30.400Z,9.10
2022-08-17T07:49:08.736Z,10.10
2022-08-17T07:51:44.292Z,8.95
2022-08-17T07:54:22.299Z,9.88
2022-08-17T07:56:54.907Z,10.50
2022-08-17T07:59:25.631Z,9.65
2022-08-17T08:01:58.336Z,10.60
2022-08-17T08:04:59.313Z,9.30
2022-08-17T08:07:31.899Z,9.98
2022-08-17T08:10:29.399Z,9.45
2022-08-17T08:13:14.281Z,12.30
2022-08-17T08:15:54.342Z,9.55
2022-08-17T08:18:54.473Z,10.70
2022-08-17T08:21:21.926Z,9.38
2022-08-17T08:24:14.832Z,10.35
2022-08-17T08:27:17.217Z,9.50
2022-08-17T08:29:55.512Z,10.63
2022-08-17T08:32:36.849Z,9.43
2022-08-17T08:35:13.748Z,9.32
2022-08-17T08:37:52.389Z,8.23
2022-08-17T08:40:43.960Z,8.52
2022-08-17T08:43:30.943Z,9.52
2022-08-17T08:46:24.306Z,8.38
2022-08-17T08:49:06.490Z,9.80
2022-08-17T08:51:47.016Z,9.30
2022-08-17T08:54:37.364Z,9.60
2022-08-17T08:57:27.805Z,7.00
2022-08-17T09:00:04.885Z,11.32
2022-08-17T09:03:02.545Z,8.63
2022-08-17T09:08:21.922Z,10.23
2022-08-17T09:11:04.915Z,9.07
2022-08-17T09:13:40.250Z,11.05
2022-08-17T09:16:16.530Z,11.50
2022-08-17T09:19:01.563Z,9.00
2022-08-17T09:21:48.652Z,9.35
2022-08-17T09:24:43.513Z,12.35
2022-08-17T09:27:21.637Z,8.88
2022-08-17T09:29:53.958Z,10.25
2022-08-17T09:32:41.078Z,9.13
2022-08-17T09:35:24.991Z,10.80
2022-08-17T09:38:13.251Z,11.13
2022-08-17T09:41:05.163Z,14.70
2022-08-17T09:43:41.296Z,10.38
2022-08-17T09:46:18.172Z,10.70
2022-08-17T09:51:34.923Z,9.88
2022-08-17T09:54:21.390Z,10.15
2022-08-17T09:57:27.955Z,11.02
2022-08-17T10:00:10.264Z,9.55
2022-08-17T10:03:19.728Z,8.70
2022-08-17T10:05:58.700Z,12.70
2022-08-17T10:08:52.963Z,10.90
2022-08-17T10:11:45.590Z,10.35
2022-08-17T10:14:37.252Z,11.18
2022-08-17T10:17:22.699Z,11.57
2022-08-17T10:19:59.190Z,10.50
2022-08-17T10:23:05.876Z,10.80
2022-08-17T10:25:55.931Z,11.60
2022-08-17T10:28:30.459Z,10.30
2022-08-17T10:31:30.807Z,9.50
2022-08-17T10:34:27.801Z,10.45
2022-08-17T10:36:57.389Z,8.60
2022-08-17T10:39:52.884Z,11.32
2022-08-17T10:42:36.543Z,10.73
2022-08-17T10:45:06.389Z,10.90
2022-08-17T10:48:06.837Z,9.77
2022-08-17T10:51:05.979Z,8.63
2022-08-17T10:53:32.426Z,7.95
2022-08-17T10:56:14.032Z,8.02
2022-08-17T10:59:00.429Z,9.13
2022-08-17T11:01:58.244Z,10.03
2022-08-17T11:04:40.851Z,9.45
2022-08-17T11:07:25.739Z,9.90
2022-08-17T11:10:15.940Z,6.82
2022-08-17T11:13:09.003Z,8.20
2022-08-17T11:15:48.368Z,7.88
2022-08-17T11:18:38.491Z,8.85
2022-08-17T11:21:39.082Z,6.53
2022-08-17T11:24:36.004Z,7.03
2022-08-17T11:27:22.391Z,7.18
2022-08-17T11:30:06.343Z,8.32
2022-08-17T11:32:52.012Z,7.63
2022-08-17T11:35:21.297Z,6.32
2022-08-17T11:38:18.337Z,5.80
2022-08-17T11:41:03.312Z,7.75
2022-08-17T11:44:02.073Z,6.55
2022-08-17T11:46:57.206Z,6.53
2022-08-17T11:49:58.052Z,6.97
2022-08-17T11:52:39.563Z,5.82
2022-08-17T11:55:34.028Z,6.13
2022-08-17T11:58:03.411Z,5.43
2022-08-17T12:00:44.794Z,5.43
2022-08-17T12:03:33.271Z,5.72
2022-08-17T12:06:07.245Z,5.40
2022-08-17T12:08:41.675Z,6.25
2022-08-17T12:11:57.796Z,6.13
2022-08-17T12:14:06.886Z,4.60
2022-08-17T12:16:33.494Z,5.28
2022-08-17T12:19:02.673Z,3.35
2022-08-17T12:21:44.982Z,4.40
2022-08-17T12:24:19.440Z,4.97
2022-08-17T12:26:52.926Z,4.32
2022-08-17T12:29:38.358Z,5.05
2022-08-17T12:32:07.004Z,6.30
2022-08-17T12:34:40.636Z,4.80
2022-08-17T12:37:16.608Z,4.28
2022-08-17T12:40:20.918Z,5.63
2022-08-17T12:42:55.448Z,4.70
2022-08-17T12:45:31.432Z,4.15
2022-08-17T12:48:07.623Z,4.68
2022-08-17T12:53:16.759Z,4.72
2022-08-17T12:55:44.334Z,4.15
2022-08-17T12:58:15.302Z,4.78
2022-08-17T13:00:49.665Z,3.85
2022-08-17T13:03:20.117Z,3.03
2022-08-17T13:05:52.787Z,4.07
2022-08-17T13:08:24.416Z,3.00
2022-08-17T13:11:22.430Z,4.60
2022-08-17T13:13:51.809Z,4.30
2022-08-17T13:16:22.129Z,4.90
2022-08-17T13:19:08.857Z,5.15
2022-08-17T13:21:37.841Z,4.53
2022-08-17T13:24:19.189Z,4.75
2022-08-17T13:26:54.350Z,4.90
2022-08-17T13:29:26.147Z,3.92
2022-08-17T13:31:58.905Z,4.32
2022-08-17T13:34:41.141Z,4.05
2022-08-17T13:37:34.848Z,5.53
2022-08-17T13:40:21.236Z,5.15
2022-08-17T13:42:55.601Z,4.25
2022-08-17T13:45:36.483Z,5.32
2022-08-17T13:48:11.128Z,4.20
2022-08-17T13:51:05.585Z,4.18
2022-08-17T13:53:50.796Z,3.72
2022-08-17T13:56:45.113Z,4.80
2022-08-17T13:59:17.048Z,4.00
2022-08-17T14:02:04.748Z,4.18
2022-08-17T14:04:32.684Z,6.53
2022-08-17T14:07:25.750Z,3.75
2022-08-17T14:09:57.954Z,4.47
2022-08-17T14:12:27.197Z,4.88
2022-08-17T14:14:56.326Z,5.75
2022-08-17T14:17:24.590Z,6.47
2022-08-17T14:19:51.496Z,4.72
2022-08-17T14:22:23.632Z,5.50
2022-08-17T14:24:51.289Z,5.80
2022-08-17T14:27:18.579Z,4.90
2022-08-17T14:29:45.115Z,5.05
2022-08-17T14:32:19.099Z,5.57
2022-08-17T14:34:46.116Z,4.35
2022-08-17T14:37:12.954Z,5.30
2022-08-17T14:39:39.740Z,4.82
2022-08-17T14:42:06.487Z,5.22
2022-08-17T14:44:33.032Z,5.72
2022-08-17T14:46:59.579Z,4.60
2022-08-17T14:49:26.054Z,4.63
2022-08-17T14:51:52.797Z,6.72
2022-08-17T14:54:33.013Z,5.82
2022-08-17T14:57:23.064Z,7.22
2022-08-17T14:59:48.843Z,6.45
2022-08-17T15:02:19.484Z,5.88
2022-08-17T15:04:47.636Z,4.68
2022-08-17T15:07:14.976Z,4.95
2022-08-17T15:09:41.508Z,6.75
2022-08-17T15:12:08.623Z,5.47
2022-08-17T15:14:36.237Z,5.90
2022-08-17T15:17:03.705Z,7.78
2022-08-17T15:19:30.132Z,5.30
2022-08-17T15:21:56.663Z,7.22
2022-08-17T15:24:23.115Z,7.32
2022-08-17T15:26:49.838Z,5.78
2022-08-17T15:29:16.285Z,5.53
2022-08-17T15:31:43.352Z,7.00
2022-08-17T15:34:09.858Z,7.78
2022-08-17T15:36:36.988Z,5.82
2022-08-17T15:39:05.288Z,5.13
2022-08-17T15:41:32.395Z,6.65
2022-08-17T15:43:58.873Z,4.20
2022-08-17T15:46:26.733Z,6.65
2022-08-17T15:48:58.181Z,8.93
2022-08-17T15:51:30.224Z,5.72
2022-08-17T15:54:04.462Z,7.88
2022-08-17T15:56:46.041Z,9.18
2022-08-17T15:59:12.628Z,7.20
2022-08-17T16:02:27.742Z,6.07
2022-08-17T16:04:29.920Z,6.63
2022-08-17T16:06:58.009Z,7.03
2022-08-17T16:09:24.463Z,8.13
2022-08-17T16:11:52.798Z,6.00
2022-08-17T16:14:22.313Z,6.10
2022-08-17T16:16:50.555Z,6.55
2022-08-17T16:19:17.058Z,7.65
2022-08-17T16:21:43.534Z,7.97
2022-08-17T16:24:13.717Z,6.47
2022-08-17T16:26:42.587Z,7.03
2022-08-17T16:29:09.138Z,6.22
2022-08-17T16:31:37.493Z,6.05
2022-08-17T16:34:17.527Z,8.23
2022-08-17T16:36:53.667Z,8.02
2022-08-17T16:39:22.965Z,7.25
2022-08-17T16:41:50.208Z,6.60
2022-08-17T16:44:19.163Z,9.10
2022-08-17T16:46:46.984Z,9.45
2022-08-17T16:49:36.103Z,7.78
2022-08-17T16:52:01.632Z,7.22
2022-08-17T16:54:28.094Z,7.13
2022-08-17T16:56:55.578Z,8.00
2022-08-17T16:59:31.146Z,10.32
2022-08-17T17:04:35.042Z,7.75
2022-08-17T17:07:33.782Z,10.32
2022-08-17T17:10:08.106Z,10.40
2022-08-17T17:13:01.395Z,7.82
2022-08-17T17:15:27.940Z,9.15
2022-08-17T17:18:06.058Z,9.20
2022-08-17T17:20:45.675Z,8.95
2022-08-17T17:23:35.718Z,11.95
2022-08-17T17:26:11.300Z,9.95
2022-08-17T17:28:50.045Z,7.75
2022-08-17T17:31:19.614Z,10.38
2022-08-17T17:33:52.370Z,9.88
2022-08-17T17:36:31.080Z,8.98
2022-08-17T17:39:03.807Z,10.68
2022-08-17T17:41:36.780Z,9.73
2022-08-17T17:44:11.973Z,8.95
2022-08-17T17:46:43.207Z,11.30
2022-08-17T17:49:14.192Z,7.78
2022-08-17T17:52:06.315Z,9.82
2022-08-17T17:55:05.933Z,9.37
2022-08-17T17:57:44.729Z,7.55
2022-08-17T18:00:21.694Z,11.38
2022-08-17T18:02:57.805Z,8.55
2022-08-17T18:05:34.468Z,9.07
2022-08-17T18:08:20.903Z,9.55
2022-08-17T18:11:06.157Z,10.45
2022-08-17T18:14:26.898Z,9.18
2022-08-17T18:16:57.389Z,7.30
2022-08-17T18:19:26.281Z,12.07
2022-08-17T18:22:00.627Z,9.60
2022-08-17T18:24:35.940Z,8.68
2022-08-17T18:27:19.007Z,8.50
2022-08-17T18:29:47.595Z,8.77
2022-08-17T18:32:19.406Z,11.30
2022-08-17T18:34:49.153Z,7.97
2022-08-17T18:37:31.736Z,7.97
2022-08-17T18:39:58.544Z,8.85
2022-08-17T18:42:28.856Z,9.32
2022-08-17T18:44:55.956Z,9.93
2022-08-17T18:47:28.773Z,9.90
2022-08-17T18:49:58.846Z,12.43
2022-08-17T18:52:31.520Z,12.30
2022-08-17T18:55:08.743Z,10.40
2022-08-17T18:57:39.489Z,10.32
2022-08-17T19:00:32.785Z,9.52
2022-08-17T19:03:18.640Z,10.68
2022-08-17T19:05:54.301Z,9.70
2022-08-17T19:08:34.958Z,10.32
2022-08-17T19:11:06.112Z,8.82
2022-08-17T19:14:05.592Z,11.73
2022-08-17T19:16:41.293Z,13.95
2022-08-17T19:19:19.551Z,12.10
2022-08-17T19:21:58.940Z,10.15
2022-08-17T19:24:29.889Z,12.00
2022-08-17T19:27:23.535Z,11.07
2022-08-17T19:30:11.701Z,9.85
2022-08-17T19:32:38.590Z,9.43
2022-08-17T19:35:11.424Z,11.85
2022-08-17T19:38:13.282Z,10.55
2022-08-17T19:41:01.064Z,11.13
2022-08-17T19:43:51.193Z,10.75
2022-08-17T19:46:48.789Z,11.65
2022-08-17T19:49:40.950Z,10.98
2022-08-17T19:52:42.747Z,9.38
2022-08-17T19:55:36.064Z,11.32
2022-08-17T19:58:18.420Z,10.18
2022-08-17T20:00:51.091Z,10.48
2022-08-17T20:03:21.999Z,11.38
2022-08-17T20:06:11.882Z,13.02
2022-08-17T20:08:56.685Z,10.63
2022-08-17T20:11:45.280Z,11.25
2022-08-17T20:14:15.871Z,10.70
2022-08-17T20:16:42.668Z,10.57
2022-08-17T20:19:41.467Z,11.80
2022-08-17T20:22:18.501Z,13.32
2022-08-17T20:24:51.083Z,12.05
2022-08-17T20:27:31.308Z,11.65
2022-08-17T20:30:00.897Z,11.73
2022-08-17T20:32:35.351Z,10.23
2022-08-17T20:35:18.004Z,10.25
2022-08-17T20:38:02.117Z,11.60
2022-08-17T20:40:32.368Z,10.07
2022-08-17T20:42:59.554Z,14.13
2022-08-17T20:45:26.261Z,11.65
2022-08-17T20:48:30.506Z,12.90
2022-08-17T20:50:52.489Z,15.73
2022-08-17T20:53:54.072Z,11.38
2022-08-17T20:56:46.519Z,9.15
2022-08-17T20:59:30.286Z,10.55
2022-08-17T21:02:18.520Z,12.63
2022-08-17T21:04:52.628Z,12.50
2022-08-17T21:07:52.054Z,11.35
2022-08-17T21:10:21.449Z,11.60
2022-08-17T21:12:52.280Z,11.35
2022-08-17T21:15:43.749Z,11.75
2022-08-17T21:18:47.665Z,11.15
2022-08-17T21:21:39.620Z,9.20
2022-08-17T21:24:21.196Z,10.45
2022-08-17T21:27:20.045Z,9.65
2022-08-17T21:30:13.792Z,12.25
2022-08-17T21:32:43.067Z,9.73
2022-08-17T21:35:28.213Z,11.40
2022-08-17T21:38:04.292Z,10.50
2022-08-17T21:40:33.612Z,9.10
2022-08-17T21:43:23.458Z,9.23
2022-08-17T21:45:58.989Z,10.45
2022-08-17T21:48:27.371Z,13.32
2022-08-17T21:51:13.056Z,11.93
2022-08-17T21:53:46.954Z,10.90
2022-08-17T21:56:41.363Z,13.43
2022-08-17T21:59:19.252Z,10.73
2022-08-17T22:02:19.657Z,10.50
2022-08-17T22:05:00.445Z,10.63
2022-08-17T22:07:59.923Z,11.20
2022-08-17T22:10:34.041Z,12.02
2022-08-17T22:13:16.565Z,11.15
2022-08-17T22:15:47.488Z,12.15
2022-08-17T22:18:24.912Z,10.80
2022-08-17T22:20:54.999Z,12.32
2022-08-17T22:23:52.787Z,10.45
2022-08-17T22:26:22.404Z,9.88
2022-08-17T22:28:58.060Z,11.52
2022-08-17T22:31:27.778Z,14.18
2022-08-17T22:34:03.360Z,9.65
2022-08-17T22:36:35.760Z,11.32
2022-08-17T22:39:02.135Z,14.02
2022-08-17T22:41:34.277Z,8.68
2022-08-17T22:44:27.277Z,9.02
2022-08-17T22:47:01.701Z,10.43
2022-08-17T22:49:54.092Z,11.65
2022-08-17T22:52:20.995Z,10.95
2022-08-17T23:00:30.643Z,11.35
2022-08-17T23:03:06.265Z,9.73
2022-08-17T23:05:34.012Z,10.20
2022-08-17T23:08:00.433Z,7.78
2022-08-17T23:12:57.355Z,10.98
2022-08-17T23:15:26.150Z,9.60
2022-08-17T23:17:52.752Z,9.93
2022-08-17T23:20:19.540Z,11.23
2022-08-17T23:22:52.261Z,9.98
2022-08-17T23:25:27.834Z,12.48
2022-08-17T23:27:54.837Z,8.85
2022-08-17T23:30:27.129Z,8.50
2022-08-17T23:32:55.761Z,9.85
2022-08-17T23:35:39.027Z,8.80
2022-08-17T23:38:08.674Z,10.80
2022-08-17T23:40:35.169Z,12.77
2022-08-17T23:45:32.457Z,11.38
2022-08-17T23:50:25.263Z,8.02
2022-08-17T23:52:56.537Z,10.60
2022-08-17T23:57:49.988Z,9.38
